Tiempo atmosférico en la estación meteorológica de Badajoz Aeropuerto, Badajoz (185 m.)



Fecha
DESCASC
Temp. máxima en grados centígrados (hora)
DESCASC
Temp. mínima en grados centígrados (hora)
DESCASC
Temp. media en grados centígrados
DESCASC
Racha de viento máxima en m/sg (hora)
DESCASC
Velocidad máxima media en intervalos de 10 minutos(hora)
DESCASC
Precipitaciones diarias en mm
DESCASC
Precipitaciones de 00:00 a 06:00 en mm
DESCASC
Precipitaciones de 06:00 a 12:00 en mm
DESCASC
Precipitaciones de 12:00 a 18:00 en mm
DESCASC
Precipitaciones de 18:00 a 24:00 en mm
DESCASC
14-02-2019 20.4 (16:50) 4.7 (06:50) 12.5 8.33 (14:20) 6.11 (14:20) 0 0 0 0 0
13-02-2019 19.6 (16:00) 3.8 (06:50) 11.7 7.5 (16:20) 5.28 (16:20) 0 0 0 0 0
12-02-2019 18.5 (16:50) 2 (08:30) 10.3 7.78 (12:10) 5.56 (12:10) 0 0 0 0 0
11-02-2019 16.5 (16:20) 5.5 (10:00) 11 7.5 (02:00) 4.72 (01:50) 0 0 0 0 0
10-02-2019 17.2 (15:10) 4.4 (00:00) 10.8 8.33 (14:00) 3.89 (13:00) 0 0 0 0 0
09-02-2019 14.7 (16:00) 0.1 (00:00) 7.4 3.89 (17:00) 2.5 (17:40) 0 0 0 0 0
08-02-2019 15.4 (16:50) 2.4 (00:00) 8.9 5.83 (18:10) 4.17 (18:10) 0 0 0 0 0
07-02-2019 16.7 (17:10) 1.9 (00:00) 9.3 3.89 (11:20) 2.5 (11:20) 0 0 0 0 0
06-02-2019 18.7 (16:30) 0.5 (00:00) 9.6 3.33 (14:20) 2.22 (12:10) 0 0 0 0 0
05-02-2019 17.5 (16:50) -0.2 (00:00) 8.6 3.89 (12:50) 2.78 (12:50) 0 0 0 0 0
04-02-2019 13.2 (15:50) -2 (-00:0) 5.6 3.61 (12:40) 1.67 (12:40) 0 0 0 0 0
03-02-2019 12.6 (16:30) 2.2 (00:00) 7.4 7.5 (15:20) 4.72 (12:40) 0 0 0 0 0
02-02-2019 12.7 (16:20) 3.9 (00:00) 8.3 14.17 (12:50) 10 (12:40) 0 0 0 0 0
01-02-2019 13.8 (14:20) 7.2 (00:00) 10.5 20.56 (15:50) 11.67 (15:00) 15.4 14.6 0 0.8 0
31-01-2019 15.6 (15:20) 11.9 (00:00) 13.8 12.5 (14:40) 6.67 (14:40) 1.8 0.6 0.2 0 1
30-01-2019 13.8 (12:50) 8.7 (00:00) 11.3 10.28 (23:10) 5.83 (02:40) 0.2 0 0 0.2 0
29-01-2019 15 (14:30) 7.4 (00:00) 11.2 12.22 (14:30) 7.22 (15:10) 0 0 0 0 0
28-01-2019 16 (15:10) 4.6 (00:00) 10.3 12.78 (14:50) 8.89 (15:30) 0 0 0 0 0
27-01-2019 14.9 (16:40) 5.3 (00:00) 10.1 12.5 (15:50) 8.61 (15:50) 0 0 0 0 0
26-01-2019 19.3 (16:10) 0.8 (00:00) 10 3.89 (13:20) 2.5 (13:20) 0 0 0 0 0
25-01-2019 19 (16:50) 4.3 (00:00) 11.7 4.17 (15:50) 2.5 (00:50) 0 0 0 0 0
24-01-2019 20 (16:50) 9.3 (00:00) 14.7 10.83 (16:10) 8.33 (15:40) 0 0 0 0 0
23-01-2019 16.3 (16:10) 8.1 (00:00) 12.2 15.28 (15:10) 11.39 (15:10) 0 0 0 0 0
22-01-2019 13.1 (15:10) 3.3 (00:00) 8.2 11.39 (15:10) 8.33 (15:10) 0 0 0 0 0
21-01-2019 14.9 (16:50) 3.9 (00:00) 9.4 5.28 (14:20) 3.33 (14:20) 0 0 0 0 0
20-01-2019 14.8 (16:00) 6.4 (00:00) 10.6 12.5 (11:10) 8.89 (11:20) 0.2 0.2 0 0 0
19-01-2019 12.4 (21:00) 6.6 (00:00) 9.5 7.22 (16:50) 4.17 (19:10) 14.6 0 0.2 0.8 13.6

Gráficas

Temp. máximas Temp. mínimas Temp. medias Precipitaciones Rachas de viento máximas Velocidades máximas media en intervalos de 10 minutos

Datos horarios

Fecha y hora oficial Temperatura (ºC) Velocidad del viento (km/h) Dirección del viento Racha (km/h) Dirección de racha Precipitación (mm) Presión (hPa) Tendencia (hPa) Humedad (%)
2019-02-17 23:00:00 11.5 9 Sudeste 16 Sudeste 0 996.4 -0.2 75
2019-02-17 22:00:00 11.4 6 Sudeste 8 Sur 0 996.6 0.2 75
2019-02-17 21:00:00 12.5 3 Sudoeste 5 Sudoeste 0 996.7 0.5 71
2019-02-17 20:00:00 13.8 0 Calma 12 Oeste 0 996.6 0.2 66
2019-02-17 19:00:00 15.2 7 Oeste 18 Sudoeste 0 996.4 -0.4 61
2019-02-17 18:00:00 16.5 11 Oeste 17 Noroeste 0 996.2 -1.4 55
2019-02-17 17:00:00 18.6 8 Oeste 21 Oeste 0 996.4 -2.3 46
2019-02-17 16:00:00 18.9 8 Sur 17 Sur 0 996.8 -3.2 44
2019-02-17 15:00:00 17.8 5 Norte 12 Sudeste 0 997.6 -2.9 47
2019-02-17 14:00:00 17.1 4 Este 10 Sudeste 0 998.7 -1.9 47
2019-02-17 13:00:00 15.5 4 Este 12 Este 0 1000 -0.7 54
2019-02-17 12:00:00 13.6 5 Sudeste 14 Este 0 1000.5 -0.4 61
2019-02-17 11:00:00 10.3 6 Este 14 Este 0 1000.6 -0.2 73
2019-02-17 10:00:00 7 11 Este 15 Este 0 1000.7 0 84
2019-02-17 09:00:00 3.3 5 Este 10 Este 0 1000.9 0.6 91
2019-02-17 08:00:00 2.9 3 Sur 7 Este 0 1000.8 0.7 91
2019-02-17 07:00:00 3 4 Noroeste 10 Sudoeste 0 1000.7 0.7 87
2019-02-17 06:00:00 3.8 3 Sur 9 Oeste 0 1000.3 0.2 88
2019-02-17 05:00:00 4.1 2 Oeste 14 Sudeste 0 1000.1 -0.4 85
2019-02-17 04:00:00 4.7 8 Este 13 Este 0 1000 -0.6 83
2019-02-17 03:00:00 5.9 6 Sudeste 12 Sudeste 0 1000.1 -0.3 80
2019-02-17 02:00:00 5.9 4 Nordeste 12 Este 0 1000.5 0 84
2019-02-17 01:00:00 7.5 4 Sudoeste 9 Este 0 1000.6 0.2 77
2019-02-17 00:00:00 7.8 0 Calma 8 Nordeste 0 1000.4 0.1 76
2019-02-16 23:00:00 9.7 0 Calma 10 Sur 0 1000.5 0.7 73
2019-02-16 22:00:00 12.2 7 Sur 10 Sur 0 1000.4 1.2 62
2019-02-16 21:00:00 13.1 5 Sur 14 Sur 0 1000.3 1.3 62
2019-02-16 20:00:00 14.8 8 Este 13 Este 0 999.8 0.9 55
2019-02-16 19:00:00 16.7 12 Este 19 Este 0 999.2 0.2 50
2019-02-16 18:00:00 19.3 13 Este 23 Este 0 999 -0.7 41
2019-02-16 17:00:00 20.3 16 Este 27 Este 0 998.9 -1.9 36
2019-02-16 16:00:00 19.9 17 Nordeste 25 Este 0 999 -2.9 38
2019-02-16 15:00:00 18.8 15 Este 23 Este 0 999.7 -2.7 43
2019-02-16 14:00:00 17.2 14 Este 27 Este 0 1000.8 -1.5 52
2019-02-16 13:00:00 16.1 17 Este 26 Este 0 1001.9 -0.4 52
2019-02-16 12:00:00 13.6 18 Este 27 Este 0 1002.4 0.6 63
2019-02-16 11:00:00 11 15 Este 22 Este 0 1002.3 1.2 73
2019-02-16 10:00:00 7.4 5 Este 8 Nordeste 0 1002.3 1.4 89
2019-02-16 09:00:00 4.5 4 Este 8 Nordeste 0 1001.8 1 96
2019-02-16 08:00:00 4 7 Nordeste 8 Nordeste 0 1001.1 0.6 94
2019-02-16 07:00:00 4.8 3 Este 5 Norte 0 1000.9 0.2 93
2019-02-16 06:00:00 5.5 0 Calma 3 Noroeste 0 1000.8 0 91
2019-02-16 05:00:00 6.2 3 Sudeste 4 Sudeste 0 1000.5 -0.8 90
2019-02-16 04:00:00 6.4 2 Nordeste 4 Norte 0 1000.7 -0.6 91
2019-02-16 03:00:00 6.9 3 Este 4 Nordeste 0 1000.8 -0.6 88
2019-02-16 02:00:00 7.5 3 Noroeste 5 Oeste 0 1001.3 -0.2 87
2019-02-16 01:00:00 7.8 4 Noroeste 6 Noroeste 0 1001.3 -0.1 84
2019-02-16 00:00:00 8.9 3 Sudeste 7 Nordeste 0 1001.4 0.4 82
2019-02-15 23:00:00 9.8 2 Este 6 Este 0 1001.5 0.5 78
2019-02-15 22:00:00 10.8 2 Norte 10 Nordeste 0 1001.4 0.6 74
2019-02-15 21:00:00 12.5 5 Nordeste 8 Nordeste 0 1001 0.3 68
2019-02-15 20:00:00 13.9 6 Este 11 Nordeste 0 1001 0.1 59
2019-02-15 19:00:00 16.3 5 Este 15 Este 0 1000.8 -0.6 51
2019-02-15 18:00:00 18.5 13 Nordeste 24 Este 0 1000.7 -1.4 42
2019-02-15 17:00:00 19.3 16 Nordeste 24 Nordeste 0 1000.9 -2.3 40
2019-02-15 16:00:00 19.6 16 Este 27 Nordeste 0 1001.4 -2.9 39
2019-02-15 15:00:00 19.1 18 Este 26 Nordeste 0 1002.1 -2.9 40
2019-02-15 14:00:00 17.9 17 Este 31 Este 0 1003.2 -1.8 49
2019-02-15 13:00:00 16 19 Este 27 Este 0 1004.3 -0.8 57
2019-02-15 12:00:00 13.8 19 Este 27 Este 0 1005 0.3 67
2019-02-15 11:00:00 11.3 16 Este 23 Este 0 1005 0.9 77
2019-02-15 10:00:00 8 14 Este 19 Este 0 1005.1 1 87
2019-02-15 09:00:00 4.2 10 Este 13 Este 0 1004.7 0.6 97
2019-02-15 08:00:00 3.7 9 Este 12 Este 0 1004.1 0.1 96
2019-02-15 07:00:00 3.7 11 Este 13 Nordeste 0 1004.1 -0.2 95
2019-02-15 06:00:00 4.6 7 Este 13 Este 0 1004.1 -0.2 92
2019-02-15 05:00:00 4.7 9 Este 13 Este 0 1004 -0.6 94
2019-02-15 04:00:00 5.3 11 Este 14 Este 0 1004.3 -0.2 91
2019-02-15 03:00:00 6.3 8 Este 16 Este 0 1004.3 -0.2 89
2019-02-15 02:00:00 6.5 11 Este 14 Este 0 1004.6 0.2 85
2019-02-15 01:00:00 7.3 8 Este 11 Este 0 1004.5 0.6 85
2019-02-15 00:00:00 8.7 5 Este 8 Este 0 1004.5 0.8 80
2019-02-14 23:00:00 10.2 3 Sudeste 11 Este 0 1004.4 1.1 74
2019-02-14 22:00:00 11.1 5 Este 12 Este 0 1003.9 1.1 71
2019-02-14 21:00:00 12.9 5 Sudeste 15 Este 0 1003.7 1 65
2019-02-14 20:00:00 14.4 9 Este 22 Este 0 1003.3 0.1 59
2019-02-14 19:00:00 16.6 13 Este 22 Este 0 1002.8 -0.6 53
2019-02-14 18:00:00 19.1 15 Este 27 Este 0 1002.7 -1.4 48
2019-02-14 17:00:00 20.2 15 Este 24 Este 0 1003.2 -1.6 44
2019-02-14 16:00:00 20.1 18 Este 28 Este 0 1003.4 -2.3 43
2019-02-14 15:00:00 19.1 19 Nordeste 30 Este 0 1004.1 -2 47
2019-02-14 14:00:00 17.9 20 Este 26 Nordeste 0 1004.8 -1.6 52
2019-02-14 13:00:00 16.7 19 Este 28 Este 0 1005.7 -0.4 55
2019-02-14 12:00:00 15 20 Este 27 Este 0 1006.1 0.3 59
2019-02-14 11:00:00 12.3 18 Este 28 Este 0 1006.4 0.9 68
2019-02-14 10:00:00 9 17 Este 25 Este 0 1006.1 0.7 80
2019-02-14 09:00:00 6 16 Este 22 Este 0 1005.8 0.8 89
2019-02-14 08:00:00 5.3 15 Este 19 Este 0 1005.5 0.7 89
2019-02-14 07:00:00 4.8 10 Este 15 Este 0 1005.4 0.5 90
2019-02-14 06:00:00 5 10 Este 15 Este 0 1005 -0.2 89
2019-02-14 05:00:00 5.3 11 Este 15 Este 0 1004.8 -0.6 86
2019-02-14 04:00:00 5.4 8 Este 12 Este 0 1004.9 -0.4 90
2019-02-14 03:00:00 6.2 10 Este 12 Este 0 1005.2 -0.1 87
2019-02-14 02:00:00 6.9 5 Este 9 Sudeste 0 1005.4 0.2 89
2019-02-14 01:00:00 7.6 8 Sudeste 11 Sudeste 0 1005.3 0.5 86
2019-02-14 00:00:00 8.7 4 Este 8 Este 0 1005.3 0.7 84
2019-02-13 23:00:00 10.2 4 Este 6 Este 0 1005.2 0.6 79
2019-02-13 22:00:00 11.6 5 Este 11 Este 0 1004.8 0.4 73
2019-02-13 21:00:00 12.8 4 Este 9 Este 0 1004.6 0.2 68
2019-02-13 20:00:00 13.9 6 Este 11 Este 0 1004.6 0.1 64
2019-02-13 19:00:00 15.8 10 Este 18 Este 0 1004.4 -0.4 57
2019-02-13 18:00:00 18.3 14 Este 23 Nordeste 0 1004.4 -0.8 47
2019-02-13 17:00:00 19.2 17 Este 27 Nordeste 0 1004.5 -1.5 43
2019-02-13 16:00:00 19.6 16 Este 26 Este 0 1004.8 -2.3 39
2019-02-13 15:00:00 18.4 12 Nordeste 23 Este 0 1005.2 -2.3 49
2019-02-13 14:00:00 17.9 11 Este 18 Este 0 1006 -1.7 51
2019-02-13 13:00:00 16.3 9 Este 15 Este 0 1007.1 -0.6 54
2019-02-13 12:00:00 14.7 10 Este 16 Este 0 1007.5 0 62
2019-02-13 11:00:00 11.3 8 Este 15 Este 0 1007.7 0.8 76
2019-02-13 10:00:00 7.6 9 Este 13 Sudeste 0 1007.7 1 88
2019-02-13 09:00:00 4.6 4 Este 5 Este 0 1007.5 1 95
2019-02-13 08:00:00 4 2 Este 8 Este 0 1006.9 0.4 95
2019-02-13 07:00:00 3.8 6 Este 9 Este 0 1006.7 0 94
2019-02-13 06:00:00 4.5 6 Nordeste 9 Nordeste 0 1006.5 -0.3 91
2019-02-13 05:00:00 4.7 2 Oeste 3 Oeste 0 1006.5 -0.4 91
2019-02-13 04:00:00 5.3 0 Calma 3 Nordeste 0 1006.7 -0.2 89
2019-02-13 03:00:00 5.8 0 Calma 4 Nordeste 0 1006.8 0 87
2019-02-13 02:00:00 6.5 3 Este 5 Este 0 1006.9 -0.2 84
2019-02-13 01:00:00 7 2 Sudeste 8 Este 0 1006.9 -0.2 81
2019-02-13 00:00:00 8 5 Este 7 Este 0 1006.8 -0.1 77
2019-02-12 23:00:00 9.2 6 Nordeste 8 Este 0 1007.1 0.5 72
2019-02-12 22:00:00 10.6 0 Calma 5 Este 0 1007.1 0.9 66
2019-02-12 21:00:00 11.5 4 Este 14 Nordeste 0 1006.9 0.9 61
2019-02-12 20:00:00 13.1 7 Nordeste 11 Nordeste 0 1006.6 0.8 52
2019-02-12 19:00:00 15.1 8 Nordeste 16 Nordeste 0 1006.2 0.2 48
2019-02-12 18:00:00 17.4 12 Nordeste 21 Este 0 1006 -0.3 41
2019-02-12 17:00:00 18.4 14 Nordeste 22 Este 0 1005.8 -1.2 39
2019-02-12 16:00:00 18.3 15 Este 23 Este 0 1006 -1.9 42
2019-02-12 15:00:00 17.5 13 Este 22 Este 0 1006.3 -2 43
2019-02-12 14:00:00 16.3 16 Este 26 Este 0 1007 -1.4 46
2019-02-12 13:00:00 14.9 19 Este 28 Nordeste 0 1007.9 -0.2 51
2019-02-12 12:00:00 12.8 18 Este 25 Este 0 1008.3 0.7 58
2019-02-12 11:00:00 9.8 13 Este 19 Este 0 1008.4 1.4 76
2019-02-12 10:00:00 4.9 4 Nordeste 5 Este 0 1008.1 1.3 100
2019-02-12 09:00:00 2.5 2 Sudeste 5 Nordeste 0 1007.6 1 98
2019-02-12 08:00:00 2.9 3 Este 6 Este 0 1007 0.5 98
2019-02-12 07:00:00 3 3 Sur 4 Oeste 0 1006.8 0.3 98
2019-02-12 06:00:00 3.2 0 Calma 4 Norte 0 1006.6 -0.2 97
2019-02-12 05:00:00 3.7 3 Este 6 Este 0 1006.5 -0.3 96
2019-02-12 04:00:00 4.3 5 Este 6 Este 0 1006.5 -0.5 95
2019-02-12 03:00:00 4.8 4 Nordeste 5 Nordeste 0 1006.8 0 93
2019-02-12 02:00:00 6.3 3 Sur 5 Oeste 0 1006.8 0.3 93
2019-02-12 01:00:00 7.2 4 Sudoeste 5 Noroeste 0 1007 0.8 92
2019-02-12 00:00:00 8.1 5 Noroeste 6 Noroeste 0 1006.8 0.8 89
2019-02-11 23:00:00 8.2 0 Calma 3 Noroeste 0 1006.5 0.7 86
2019-02-11 22:00:00 9.5 2 Norte 4 Norte 0 1006.2 0.9 82
2019-02-11 21:00:00 10.8 2 Norte 8 Norte 0 1006 1.1 76
2019-02-11 20:00:00 11.9 5 Norte 8 Norte 0 1005.8 0.9 69
2019-02-11 19:00:00 13.1 7 Norte 15 Norte 0 1005.3 0.4 65
2019-02-11 18:00:00 14.8 11 Norte 21 Norte 0 1004.9 -0.4 60
2019-02-11 17:00:00 15.8 14 Norte 23 Norte 0 1004.9 -1.1 59
2019-02-11 16:00:00 16.2 10 Noroeste 25 Noroeste 0 1004.9 -1.6 50
2019-02-11 15:00:00 15.9 8 Nordeste 21 Nordeste 0 1005.3 -1.4 54
2019-02-11 14:00:00 15.2 4 Norte 11 Nordeste 0 1006 -0.8 61
2019-02-11 13:00:00 13 4 Oeste 9 Noroeste 0 1006.5 0 69
2019-02-11 12:00:00 10.4 4 Norte 9 Sudoeste 0 1006.7 0.7 80
2019-02-11 11:00:00 7.4 5 Oeste 9 Noroeste 0 1006.8 1.5 99
2019-02-11 10:00:00 5.7 6 Oeste 11 Oeste 0 1006.5 1.5 100
2019-02-11 09:00:00 5.7 6 Oeste 11 Oeste 0 1006 1.5 99
2019-02-11 08:00:00 6.2 5 Oeste 14 Oeste 0 1005.3 0.9 99
2019-02-11 07:00:00 6.4 7 Oeste 14 Oeste 0 1005 0.3 98
2019-02-11 06:00:00 7 7 Oeste 15 Oeste 0 1004.5 0 97
2019-02-11 05:00:00 7.9 7 Oeste 23 Noroeste 0 1004.4 0.1 95
2019-02-11 04:00:00 8.5 11 Noroeste 22 Oeste 0 1004.7 0.8 95
2019-02-11 03:00:00 10.4 5 Oeste 26 Oeste 0 1004.5 0.2 93
2019-02-11 02:00:00 12.1 17 Oeste 27 Noroeste 0 1004.3 0.3 91
2019-02-11 01:00:00 12.9 6 Sudoeste 17 Sudoeste 0 1003.9 0.1 95
2019-02-11 00:00:00 13.2 5 Sudoeste 21 Sudoeste 0 1004.3 0.8 95
2019-02-10 23:00:00 13.3 6 Sudoeste 21 Sudoeste 0 1004 0.5 94
2019-02-10 22:00:00 13.8 7 Sudoeste 23 Oeste 0 1003.8 0.5 88
2019-02-10 21:00:00 14.5 9 Sudoeste 21 Oeste 0 1003.5 0.3 82
2019-02-10 20:00:00 14.9 5 Sudoeste 21 Oeste 0 1003.5 0.6 78
2019-02-10 19:00:00 15.5 9 Sudoeste 23 Sudoeste 0 1003.3 0.1 73
2019-02-10 18:00:00 16 12 Sudoeste 26 Oeste 0 1003.2 -0.2 70
2019-02-10 17:00:00 16.2 9 Sudoeste 22 Sudoeste 0 1002.9 -0.9 68
2019-02-10 16:00:00 16.2 9 Sudoeste 24 Oeste 0 1003.2 -1.3 66
2019-02-10 15:00:00 17.1 13 Sudoeste 28 Oeste 0 1003.4 -0.7 62
2019-02-10 14:00:00 16.8 12 Sudoeste 30 Oeste 0 1003.8 -0.5 64
2019-02-10 13:00:00 15.8 14 Oeste 27 Oeste 0 1004.5 0.3 67
2019-02-10 12:00:00 13.6 8 Sudoeste 23 Oeste 0 1004.1 0.5 72
2019-02-10 11:00:00 11.5 6 Sudoeste 16 Sudoeste 0 1004.3 1.2 83
2019-02-10 10:00:00 9 8 Sur 12 Sur 0 1004.2 1.9 92
2019-02-10 09:00:00 6.1 4 Este 5 Sudeste 0 1003.6 1.4 98
2019-02-10 08:00:00 5.6 3 Este 11 Norte 0 1003.1 1.1 98
2019-02-10 07:00:00 5.2 4 Nordeste 6 Sudeste 0 1002.3 0.4 98
2019-02-10 06:00:00 4.6 4 Este 5 Este 0 1002.2 0.2 98
2019-02-10 05:00:00 4.8 2 Este 10 Noroeste 0 1002 -0.1 97
2019-02-10 04:00:00 5.3 4 Oeste 7 Oeste 0 1001.9 -0.2 93
2019-02-10 03:00:00 6.6 3 Sudeste 6 Este 0 1002 0 94
2019-02-10 02:00:00 7.4 3 Este 10 Noroeste 0 1002.1 0.1 91
2019-02-10 01:00:00 8.2 10 Noroeste 21 Noroeste 0 1002.1 0.4 90
2019-02-10 00:00:00 8.9 2 Oeste 14 Sur 0 1002 0.5 86
2019-02-09 23:00:00 9.5 8 Sur 11 Sur 0 1002 0.9 85
2019-02-09 22:00:00 9.1 3 Sur 6 Sur 0 1001.7 1.1 84
2019-02-09 21:00:00 9.2 0 Calma 3 Sur 0 1001.5 0.9 83
2019-02-09 20:00:00 10.4 3 Oeste 6 Noroeste 0 1001.1 0.4 79
2019-02-09 19:00:00 12.4 3 Oeste 7 Noroeste 0 1000.6 -0.2 71
2019-02-09 18:00:00 13.3 6 Noroeste 13 Noroeste 0 1000.6 -0.9 69
2019-02-09 17:00:00 14.2 7 Noroeste 14 Oeste 0 1000.7 -1.4 63
2019-02-09 16:00:00 14.6 6 Nordeste 13 Norte 0 1000.8 -2 65
2019-02-09 15:00:00 13.6 6 Noroeste 12 Norte 0 1001.5 -1.7 69
2019-02-09 14:00:00 13.5 4 Noroeste 9 Noroeste 0 1002.1 -1.3 70
2019-02-09 13:00:00 11.7 2 Noroeste 10 Nordeste 0 1002.8 -0.2 74
2019-02-09 12:00:00 8.6 4 Nordeste 8 Este 0 1003.2 0.5 83
2019-02-09 11:00:00 5.3 0 Calma 5 Norte 0 1003.4 1.4 96
2019-02-09 10:00:00 1.6 2 Norte 3 Norte 0 1003 1.2 100
2019-02-09 09:00:00 0.3 2 Oeste 5 Noroeste 0 1002.7 1 98
2019-02-09 08:00:00 0.7 0 Calma 4 Norte 0 1002 0.5 98
2019-02-09 07:00:00 1.2 0 Calma 4 Norte 0 1001.8 -0.1 97
2019-02-09 06:00:00 1.5 0 Calma 4 Noroeste 0 1001.7 -0.4 96
2019-02-09 05:00:00 2.2 3 Este 4 Este 0 1001.5 -0.8 95
2019-02-09 04:00:00 3.3 3 Este 5 Este 0 1001.9 -0.5 94
2019-02-09 03:00:00 4.8 3 Sudoeste 6 Sur 0 1002.1 -0.2 93
2019-02-09 02:00:00 5 0 Calma 6 Sur 0 1002.3 0.1 93
2019-02-09 01:00:00 5.1 4 Sur 5 Oeste 0 1002.4 0.6 93
2019-02-09 00:00:00 6.1 0 Calma 11 Sur 0 1002.3 0.6 87
2019-02-08 23:00:00 7.7 5 Sudoeste 9 Sudoeste 0 1002.2 0.7 85
2019-02-08 22:00:00 8.3 4 Sudoeste 6 Oeste 0 1001.8 1 83
2019-02-08 21:00:00 8.7 2 Sudoeste 15 Oeste 0 1001.7 0.9 82
2019-02-08 20:00:00 9.6 9 Oeste 16 Noroeste 0 1001.5 0.8 80
2019-02-08 19:00:00 11.7 12 Oeste 21 Noroeste 0 1000.8 -0.1 74
2019-02-08 18:00:00 13.7 13 Noroeste 19 Noroeste 0 1000.8 -0.6 68
2019-02-08 17:00:00 15.2 10 Oeste 20 Oeste 0 1000.7 -1.4 61
2019-02-08 16:00:00 14.7 8 Oeste 19 Oeste 0 1000.9 -2.1 64
2019-02-08 15:00:00 12.8 4 Noroeste 11 Noroeste 0 1001.4 -1.8 74
2019-02-08 14:00:00 10.8 4 Noroeste 10 Noroeste 0 1002.1 -1 85
2019-02-08 13:00:00 8.4 7 Oeste 12 Oeste 0 1003 0.1 99
2019-02-08 12:00:00 6.6 5 Oeste 10 Sudoeste 0 1003.2 0.9 100
2019-02-08 11:00:00 5.1 0 Calma 10 Noroeste 0 1003.1 1.2 100
2019-02-08 10:00:00 4.1 2 Oeste 6 Oeste 0 1002.9 1.2 100
2019-02-08 09:00:00 3.3 3 Noroeste 6 Noroeste 0 1002.3 0.7 99
2019-02-08 08:00:00 3.5 2 Noroeste 6 Noroeste 0 1001.9 0.4 99
2019-02-08 07:00:00 3.5 2 Noroeste 5 Noroeste 0 1001.7 0 99
2019-02-08 06:00:00 2.7 3 Oeste 5 Noroeste 0 1001.6 -0.2 98
2019-02-08 05:00:00 2.7 0 Calma 3 Noroeste 0 1001.5 -0.6 97
2019-02-08 04:00:00 3.3 0 Calma 9 Oeste 0 1001.7 -0.4 95
2019-02-08 03:00:00 4.7 3 Oeste 11 Sur 0 1001.8 -0.3 89
2019-02-08 02:00:00 5.5 4 Sudeste 5 Sudeste 0 1002.1 0.1 94
2019-02-08 01:00:00 6.6 2 Oeste 7 Oeste 0 1002.1 0.6 88
2019-02-08 00:00:00 8.6 5 Oeste 10 Oeste 0 1002.1 0.7 83
2019-02-07 23:00:00 9.3 5 Sudoeste 12 Oeste 0 1002 0.8 78
2019-02-07 22:00:00 10.5 5 Sudoeste 12 Sudoeste 0 1001.5 0.6 72
2019-02-07 21:00:00 11.3 5 Sudoeste 11 Oeste 0 1001.4 0.1 66
2019-02-07 20:00:00 12.6 5 Sudoeste 10 Sur 0 1001.2 -0.3 62
2019-02-07 19:00:00 14.3 4 Sudoeste 10 Oeste 0 1000.9 -0.7 60
2019-02-07 18:00:00 16 5 Oeste 10 Oeste 0 1001.3 -0.9 53
2019-02-07 17:00:00 16.6 5 Oeste 11 Oeste 0 1001.5 -1.5 49
2019-02-07 16:00:00 16.1 5 Sur 8 Sur 0 1001.6 -2.2 40
2019-02-07 15:00:00 14.2 5 Noroeste 10 Noroeste 0 1002.2 -2.1 53
2019-02-07 14:00:00 11.8 6 Noroeste 13 Norte 0 1003 -1.1 65
2019-02-07 13:00:00 9 7 Noroeste 12 Noroeste 0 1003.8 0 82
2019-02-07 12:00:00 6.1 5 Oeste 14 Noroeste 0 1004.3 1 100
2019-02-07 11:00:00 5.3 6 Oeste 12 Oeste 0 1004.1 1.3 100
2019-02-07 10:00:00 4.6 7 Noroeste 11 Noroeste 0 1003.8 1.4 99
2019-02-07 09:00:00 2.9 2 Sudoeste 12 Oeste 0 1003.3 1 99
2019-02-07 08:00:00 3.3 7 Oeste 12 Noroeste 0 1002.8 0.5 96
2019-02-07 07:00:00 4.2 4 Sudoeste 9 Oeste 0 1002.4 -0.1 96
2019-02-07 06:00:00 4.2 4 Oeste 8 Oeste 0 1002.3 -0.5 96
2019-02-07 05:00:00 4.8 3 Oeste 9 Sur 0 1002.3 -0.7 86
2019-02-07 04:00:00 5.2 4 Sudeste 7 Sudeste 0 1002.5 -0.5 94
2019-02-07 03:00:00 5.4 3 Oeste 8 Oeste 0 1002.8 -0.1 89
2019-02-07 02:00:00 6.9 3 Oeste 5 Oeste 0 1003 0.2 86
2019-02-07 01:00:00 6.7 3 Sudoeste 5 Nordeste 0 1003 0.5 85
2019-02-07 00:00:00 7.8 0 Calma 6 Oeste 0 1002.9 0.6 78
2019-02-06 23:00:00 9.1 4 Sudoeste 6 Oeste 0 1002.8 0.5 74
2019-02-06 22:00:00 9.9 2 Oeste 7 Sudoeste 0 1002.5 0.3 72
2019-02-06 21:00:00 12.5 6 Sudoeste 7 Sudoeste 0 1002.3 0.3 61
2019-02-06 20:00:00 13.5 4 Sudoeste 5 Sudoeste 0 1002.3 0.2 57
2019-02-06 19:00:00 15.2 4 Oeste 6 Noroeste 0 1002.2 -0.2 54
2019-02-06 18:00:00 17 5 Oeste 9 Noroeste 0 1002 -0.8 47
2019-02-06 17:00:00 17.9 6 Oeste 11 Noroeste 0 1002.1 -1.4 43
2019-02-06 16:00:00 18.1 5 Noroeste 8 Noroeste 0 1002.4 -2.2 45
2019-02-06 15:00:00 17.4 2 Nordeste 12 Nordeste 0 1002.8 -2.5 50
2019-02-06 14:00:00 16.1 5 Nordeste 11 Nordeste 0 1003.5 -1.9 55
2019-02-06 13:00:00 13.7 5 Este 11 Este 0 1004.6 -1 63
2019-02-06 12:00:00 10.3 6 Nordeste 12 Nordeste 0 1005.3 0.2 77
2019-02-06 11:00:00 7 5 Este 8 Este 0 1005.4 0.5 85
2019-02-06 10:00:00 2.7 2 Norte 4 Noroeste 0 1005.6 1.1 100
2019-02-06 09:00:00 1 0 Calma 6 Oeste 0 1005.1 0.4 98
2019-02-06 08:00:00 0.8 3 Oeste 7 Este 0 1004.9 0.2 98
2019-02-06 07:00:00 1.1 3 Este 5 Sudeste 0 1004.5 -0.7 97
2019-02-06 06:00:00 1.7 3 Sur 4 Sur 0 1004.7 -0.5 97
2019-02-06 05:00:00 2.1 2 Nordeste 3 Este 0 1004.7 -0.9 95
2019-02-06 04:00:00 2.7 0 Calma 3 Sur 0 1005.2 -0.5 93
2019-02-06 03:00:00 3.4 3 Sudeste 4 Sudeste 0 1005.2 -0.7 93
2019-02-06 02:00:00 3.9 2 Sudoeste 5 Noroeste 0 1005.6 -0.2 92
2019-02-06 01:00:00 4.1 3 Oeste 4 Noroeste 0 1005.7 0 88
2019-02-06 00:00:00 5.8 3 Nordeste 3 Este 0 1005.9 0.3 87
2019-02-05 23:00:00 6.6 0 Calma 4 Oeste 0 1005.8 0.3 82
2019-02-05 22:00:00 8.3 0 Calma 4 Nordeste 0 1005.7 0.4 74
2019-02-05 21:00:00 11.8 3 Sudoeste 7 Oeste 0 1005.6 0.3 58
2019-02-05 20:00:00 12.6 4 Sudoeste 6 Sudoeste 0 1005.5 0 57
2019-02-05 19:00:00 14.6 3 Oeste 4 Oeste 0 1005.3 -0.4 50
2019-02-05 18:00:00 16.6 0 Calma 9 Nordeste 0 1005.3 -1.1 44
2019-02-05 17:00:00 17.4 5 Este 12 Este 0 1005.5 -1.6 41
2019-02-05 16:00:00 16.6 6 Nordeste 13 Este 0 1005.7 -2.4 44
2019-02-05 15:00:00 15.8 7 Este 14 Nordeste 0 1006.4 -2.2 44
2019-02-05 14:00:00 13.8 8 Nordeste 14 Este 0 1007.1 -1.3 50
2019-02-05 13:00:00 12.1 10 Este 14 Este 0 1008.1 -0.1 58
2019-02-05 12:00:00 9.4 8 Nordeste 13 Este 0 1008.6 1.2 70
2019-02-05 11:00:00 6.3 8 Este 12 Nordeste 0 1008.4 1.5 83
2019-02-05 10:00:00 1.9 3 Norte 5 Norte 0 1008.2 1.4 97
2019-02-05 09:00:00 0 0 Calma 3 Este 0 1007.4 0.7 98
2019-02-05 08:00:00 -0.1 2 Noroeste 3 Norte 0 1006.9 0.4 97
2019-02-05 07:00:00 0.3 0 Calma 4 Sudeste 0 1006.8 0 97
2019-02-05 06:00:00 0.4 2 Este 5 Este 0 1006.7 -0.3 96
2019-02-05 05:00:00 0.7 3 Este 4 Nordeste 0 1006.5 -0.7 96
2019-02-05 04:00:00 1.1 0 Calma 4 Oeste 0 1006.8 -0.6 94
2019-02-05 03:00:00 1.6 0 Calma 5 Sudeste 0 1007 -0.4 93
2019-02-05 02:00:00 2.3 3 Sudeste 5 Sudeste 0 1007.2 -0.2 92
2019-02-05 01:00:00 3 0 Calma 4 Este 0 1007.4 0.3 90
2019-02-05 00:00:00 3.7 3 Oeste 5 Noroeste 0 1007.4 0.5 85
2019-02-04 23:00:00 4.5 5 Noroeste 8 Este 0 1007.4 0.7 85
2019-02-04 22:00:00 5.5 4 Este 5 Sudeste 0 1007.1 0.5 77
2019-02-04 21:00:00 7.6 3 Sudoeste 5 Sur 0 1006.9 0.4 72
2019-02-04 20:00:00 9.1 6 Sur 6 Sudoeste 0 1006.7 0.1 65
2019-02-04 19:00:00 10.7 2 Oeste 5 Norte 0 1006.6 -0.1 54
2019-02-04 18:00:00 12.3 4 Norte 8 Nordeste 0 1006.5 -0.7 44
2019-02-04 17:00:00 13 3 Norte 9 Norte 0 1006.6 -1.4 43
2019-02-04 16:00:00 13 5 Norte 10 Nordeste 0 1006.7 -2 41
2019-02-04 15:00:00 12.4 4 Nordeste 8 Norte 0 1007.2 -1.8 47
2019-02-04 14:00:00 11.3 4 Este 9 Norte 0 1008 -1 50
2019-02-04 13:00:00 9.2 5 Nordeste 13 Este 0 1008.7 0 64
2019-02-04 12:00:00 6.1 5 Nordeste 10 Nordeste 0 1009 0.7 78
2019-02-04 11:00:00 2.9 4 Nordeste 6 Norte 0 1009 1.2 88
2019-02-04 10:00:00 -0.1 4 Noroeste 5 Noroeste 0 1008.7 1.1 97
2019-02-04 09:00:00 -1.4 3 Este 7 Este 0 1008.3 0.8 100
2019-02-04 08:00:00 -1.9 3 Este 4 Este 0 1007.8 0.1 96
2019-02-04 07:00:00 -1.4 3 Este 5 Sudeste 0 1007.6 -0.4 95
2019-02-04 06:00:00 -1.1 3 Este 5 Sudeste 0 1007.5 -0.8 94
2019-02-04 05:00:00 -0.7 0 Calma 4 Sur 0 1007.7 -0.7 91
2019-02-04 04:00:00 0.2 2 Sur 5 Sudeste 0 1008 -0.2 89
2019-02-04 03:00:00 1.2 4 Oeste 10 Oeste 0 1008.3 0.2 87
2019-02-04 02:00:00 1.8 5 Sudoeste 8 Oeste 0 1008.4 0.9 82
2019-02-04 01:00:00 2.4 2 Sudeste 8 Oeste 0 1008.2 1.3 79
2019-02-04 00:00:00 3.9 5 Oeste 9 Oeste 0 1008.1 1.3 70
2019-02-03 23:00:00 4 3 Oeste 22 Noroeste 0 1007.5 1.1 72
2019-02-03 22:00:00 5 0 Calma 8 Sur 0 1006.9 0.9 69
2019-02-03 21:00:00 6.6 0 Calma 9 Noroeste 0 1006.8 1.4 64
2019-02-03 20:00:00 7.8 9 Noroeste 14 Noroeste 0 1006.4 1.1 57
2019-02-03 19:00:00 9.2 5 Norte 16 Norte 0 1006 0.8 53
2019-02-03 18:00:00 11.3 11 Nordeste 21 Nordeste 0 1005.4 0.1 40
2019-02-03 17:00:00 12.5 12 Nordeste 25 Norte 0 1005.3 -0.3 37
2019-02-03 16:00:00 12.3 14 Norte 27 Norte 0 1005.2 -0.9 37
2019-02-03 15:00:00 11.9 12 Nordeste 24 Norte 0 1005.3 -1.4 42
2019-02-03 14:00:00 11.3 14 Norte 25 Norte 0 1005.6 -0.9 47
2019-02-03 13:00:00 10.7 13 Norte 25 Nordeste 0 1006.1 0.5 49
2019-02-03 12:00:00 9 11 Norte 22 Norte 0 1006.7 1.7 57
2019-02-03 11:00:00 6 11 Noroeste 16 Noroeste 0 1006.5 2 77
2019-02-03 10:00:00 3.5 8 Oeste 11 Oeste 0 1005.6 1.6 84
2019-02-03 09:00:00 2.4 7 Oeste 14 Oeste 0 1005 1.7 84
2019-02-03 08:00:00 2.3 7 Oeste 13 Sudoeste 0 1004.5 1.3 86
2019-02-03 07:00:00 2.4 8 Oeste 13 Oeste 0 1004 0.8 88
2019-02-03 06:00:00 2.6 8 Oeste 13 Oeste 0 1003.3 0.1 86
2019-02-03 05:00:00 2.5 7 Oeste 11 Oeste 0 1003.2 0.8 87
2019-02-03 04:00:00 3 6 Oeste 12 Oeste 0 1003.2 0.7 85
2019-02-03 03:00:00 3.3 6 Oeste 15 Oeste 0 1003.2 1.5 83
2019-02-03 02:00:00 3.6 7 Oeste 14 Oeste 0 1002.4 1.1 82
2019-02-03 01:00:00 3.6 7 Oeste 11 Oeste 0 1002.5 1.4 80
2019-02-03 00:00:00 4 6 Oeste 13 Oeste 0 1001.7 1.4 79
2019-02-02 23:00:00 4.6 8 Oeste 16 Oeste 0 1001.3 1.6 75
2019-02-02 22:00:00 5.5 8 Oeste 13 Oeste 0 1001.1 2.4 70
2019-02-02 21:00:00 6.6 6 Oeste 16 Noroeste 0 1000.3 2.5 62
2019-02-02 20:00:00 7.5 15 Noroeste 20 Noroeste 0 999.7 2.5 55
2019-02-02 19:00:00 8.6 15 Noroeste 30 Noroeste 0 998.7 2.2 55
2019-02-02 18:00:00 10.8 23 Noroeste 39 Noroeste 0 997.8 1.3 43
2019-02-02 17:00:00 11.9 30 Noroeste 42 Noroeste 0 997.2 0.8 39
2019-02-02 16:00:00 12.5 24 Noroeste 42 Norte 0 996.5 0.2 38
2019-02-02 15:00:00 12 29 Noroeste 41 Noroeste 0 996.5 0.9 44
2019-02-02 14:00:00 11.6 32 Noroeste 45 Noroeste 0 996.4 1.9 47
2019-02-02 13:00:00 10.9 34 Noroeste 51 Noroeste 0 996.3 2.6 53
2019-02-02 12:00:00 9.9 27 Noroeste 40 Oeste 0 995.6 3.2 56
2019-02-02 11:00:00 7.9 27 Oeste 39 Oeste 0 994.5 3.3 67
2019-02-02 10:00:00 6.1 19 Oeste 31 Noroeste 0 993.7 3.7 81
2019-02-02 09:00:00 4.4 8 Oeste 27 Noroeste 0 992.4 3.4 89
2019-02-02 08:00:00 4.9 17 Oeste 31 Oeste 0 991.2 2.9 88
2019-02-02 07:00:00 5.6 23 Oeste 33 Oeste 0 990 2 86
2019-02-02 06:00:00 6.2 15 Oeste 29 Oeste 0 989 2.1 87
2019-02-02 05:00:00 6.6 14 Oeste 30 Noroeste 0 988.3 1.8 87
2019-02-02 04:00:00 6.8 21 Oeste 38 Noroeste 0 988 1.8 86
2019-02-02 03:00:00 7.3 20 Oeste 33 Noroeste 0 986.9 1.3 84
2019-02-02 02:00:00 7.7 16 Oeste 33 Oeste 0 986.5 1.6 82
2019-02-02 01:00:00 8.2 13 Oeste 38 Oeste 0 986.2 1.8 87
2019-02-02 00:00:00 8.1 17 Oeste 33 Oeste 0 985.6 2 86
2019-02-01 23:00:00 7.7 21 Oeste 36 Oeste 0 984.9 2.4 84
2019-02-01 22:00:00 7.3 12 Oeste 35 Oeste 0 984.4 3.4 85
2019-02-01 21:00:00 7.9 17 Oeste 37 Oeste 0 983.6 3.5 80
2019-02-01 20:00:00 7.8 17 Oeste 40 Sudoeste 0 982.5 3.9 78
2019-02-01 19:00:00 8.4 16 Oeste 44 Oeste 0 981 2.2 73
2019-02-01 18:00:00 9.5 32 Oeste 55 Noroeste 0 980.1 1.8 68
2019-02-01 17:00:00 11.1 22 Oeste 48 Oeste 0 978.6 1 70
2019-02-01 16:00:00 9 39 Oeste 74 Noroeste 0.8 978.8 0.4 86
2019-02-01 15:00:00 9.6 42 Noroeste 62 Noroeste 0 978.3 -1.2 78
2019-02-01 14:00:00 13.2 28 Oeste 55 Oeste 0 977.6 -1.8 67
2019-02-01 13:00:00 13.5 21 Oeste 49 Sudoeste 0 978.4 -0.7 65
2019-02-01 12:00:00 12.3 23 Oeste 44 Oeste 0 979.5 0.9 69
2019-02-01 11:00:00 11 20 Oeste 51 Oeste 0 979.4 1.1 71
2019-02-01 10:00:00 10 14 Oeste 33 Sudoeste 0 979.1 1.2 82
2019-02-01 09:00:00 9.2 16 Oeste 36 Sudoeste 0 978.6 0.8 84
2019-02-01 08:00:00 9.9 17 Oeste 45 Oeste 0 978.3 0.7 80
2019-02-01 07:00:00 10 19 Oeste 35 Oeste 0 977.9 -0.2 84
2019-02-01 06:00:00 10.6 16 Oeste 36 Oeste 0 977.8 -0.2 85
2019-02-01 05:00:00 10.7 14 Oeste 27 Oeste 0 977.6 -0.5 89
2019-02-01 04:00:00 10.8 15 Oeste 37 Noroeste 0 978.1 -0.2 91
2019-02-01 03:00:00 10.9 13 Oeste 42 Noroeste 4.4 978 -1.2 95
2019-02-01 02:00:00 13.3 15 Oeste 37 Oeste 6.8 978.1 -1.5 96
2019-02-01 01:00:00 13.3 11 Sudoeste 40 Sur 3.4 978.3 -2.1 95
2019-02-01 00:00:00 13.3 12 Sudoeste 41 Sur 0.8 979.2 -2.4 94
2019-01-31 23:00:00 13.3 18 Sudoeste 43 Sudoeste 0 979.6 -2.7 92
2019-01-31 22:00:00 13 20 Sudoeste 42 Sur 0 980.4 -2.3 92
2019-01-31 21:00:00 13 12 Sudoeste 38 Sudoeste 0.2 981.6 -2 91
2019-01-31 20:00:00 13.7 13 Sudoeste 30 Sur 0 982.3 -1.8 84
2019-01-31 19:00:00 13.4 12 Sudoeste 31 Sur 0 982.7 -1.3 85
2019-01-31 18:00:00 14.1 14 Sudoeste 36 Oeste 0 983.6 -1.4 81
2019-01-31 17:00:00 14.8 18 Sudoeste 40 Sudoeste 0 984.1 -1.3 80
2019-01-31 16:00:00 15.4 18 Oeste 42 Oeste 0 984 -2.3 83
2019-01-31 15:00:00 14.5 19 Oeste 45 Oeste 0 985 -1.9 87
2019-01-31 14:00:00 15 14 Sudoeste 41 Oeste 0 985.4 -1.5 83
2019-01-31 13:00:00 15 15 Sudoeste 36 Oeste 0 986.3 -0.7 84
2019-01-31 12:00:00 13.8 10 Sudoeste 31 Oeste 0 986.9 0.2 91
2019-01-31 11:00:00 13.6 11 Sudoeste 26 Oeste 0 986.9 0.4 90
2019-01-31 10:00:00 12.7 9 Sudoeste 29 Oeste 0.2 987 0.8 94
2019-01-31 09:00:00 12.2 11 Sudoeste 35 Sudoeste 0 986.7 -0.1 95
2019-01-31 08:00:00 12.2 8 Sudoeste 22 Sudoeste 0 986.5 -0.5 93
2019-01-31 07:00:00 12 6 Sudoeste 26 Oeste 0 986.2 -1.5 94
2019-01-31 06:00:00 12.3 9 Sudoeste 23 Oeste 0.2 986.8 -1.1 96
2019-01-31 05:00:00 12.4 12 Sudoeste 27 Oeste 0.4 987 -1.3 96
2019-01-31 04:00:00 12.5 12 Oeste 31 Oeste 0 987.7 -0.8 93
2019-01-31 03:00:00 12.7 13 Sudoeste 28 Oeste 0 987.9 -0.7 93
2019-01-31 02:00:00 12.5 11 Sudoeste 28 Oeste 0 988.3 -0.7 94
2019-01-31 01:00:00 12.3 9 Sudoeste 30 Oeste 0 988.5 -0.8 95
2019-01-31 00:00:00 12.1 12 Sudoeste 37 Oeste 0 988.6 -1.2 93
2019-01-30 23:00:00 11.9 12 Sudoeste 30 Sudoeste 0 989 -1.2 93
2019-01-30 22:00:00 12.1 11 Sudoeste 31 Sudoeste 0 989.3 -1.1 90
2019-01-30 21:00:00 11.9 7 Sudoeste 20 Sur 0 989.8 -0.8 89
2019-01-30 20:00:00 12.2 15 Oeste 31 Oeste 0 990.2 -1.3 86
2019-01-30 19:00:00 12.3 8 Sudoeste 26 Oeste 0 990.4 -1.7 91
2019-01-30 18:00:00 12 9 Sudoeste 24 Sudoeste 0.2 990.6 -2.3 90
2019-01-30 17:00:00 11.1 13 Sudoeste 34 Sudoeste 0 991.5 -2.3 91
2019-01-30 16:00:00 11.5 6 Sudoeste 27 Oeste 0 992.1 -2.6 87
2019-01-30 15:00:00 13 7 Sudoeste 24 Oeste 0 992.9 -2.5 72
2019-01-30 14:00:00 13.7 11 Oeste 26 Oeste 0 993.8 -1.8 65
2019-01-30 13:00:00 13.6 17 Oeste 29 Oeste 0 994.7 -1 64
2019-01-30 12:00:00 12.6 13 Oeste 26 Oeste 0 995.4 0 71
2019-01-30 11:00:00 11.5 11 Oeste 21 Oeste 0 995.6 0.5 77
2019-01-30 10:00:00 9.4 9 Oeste 18 Oeste 0 995.7 0.9 87
2019-01-30 09:00:00 8.7 8 Oeste 20 Oeste 0 995.4 0.6 89
2019-01-30 08:00:00 9.1 12 Oeste 23 Oeste 0 995.1 0.3 87
2019-01-30 07:00:00 8.9 10 Oeste 19 Noroeste 0 994.8 -0.3 89
2019-01-30 06:00:00 9.3 10 Oeste 23 Oeste 0 994.8 -0.5 85
2019-01-30 05:00:00 9.5 12 Oeste 27 Sudoeste 0 994.8 -0.7 83
2019-01-30 04:00:00 9.2 15 Oeste 28 Oeste 0 995.1 -0.4 85
2019-01-30 03:00:00 9.3 19 Oeste 30 Oeste 0 995.3 -0.1 84
2019-01-30 02:00:00 9.3 17 Oeste 27 Noroeste 0 995.5 -0.1 85
2019-01-30 01:00:00 9.2 15 Oeste 30 Oeste 0 995.5 -0.4 86
2019-01-30 00:00:00 10.5 15 Oeste 34 Oeste 0 995.4 -0.2 88
2019-01-29 23:00:00 10.9 10 Sudoeste 28 Oeste 0 995.6 -0.2 95
2019-01-29 22:00:00 11.1 9 Oeste 30 Oeste 0 995.9 0.3 92
2019-01-29 21:00:00 11.4 13 Sudoeste 31 Oeste 0 995.6 -0.3 87
2019-01-29 20:00:00 11.9 13 Oeste 29 Oeste 0 995.8 -0.5 83
2019-01-29 19:00:00 11.9 16 Oeste 28 Oeste 0 995.6 -1.1 80
2019-01-29 18:00:00 13 15 Oeste 37 Oeste 0 995.9 -0.9 75
2019-01-29 17:00:00 14 22 Oeste 42 Oeste 0 996.3 -1 70
2019-01-29 16:00:00 13.1 19 Oeste 42 Oeste 0 996.7 -1.8 79
2019-01-29 15:00:00 14 22 Oeste 44 Oeste 0 996.8 -2.6 73
2019-01-29 14:00:00 14.2 21 Oeste 42 Oeste 0 997.3 -1.8 73
2019-01-29 13:00:00 14.1 19 Oeste 40 Oeste 0 998.5 -0.8 72
2019-01-29 12:00:00 11.4 11 Oeste 24 Sudoeste 0 999.4 0.3 87
2019-01-29 11:00:00 10.9 6 Sudoeste 26 Oeste 0 999.1 -0.2 87
2019-01-29 10:00:00 9.6 12 Oeste 22 Oeste 0 999.3 0.1 92
2019-01-29 09:00:00 8.6 7 Oeste 25 Oeste 0 999.1 0 92
2019-01-29 08:00:00 8.4 14 Oeste 24 Oeste 0 999.3 0.3 93
2019-01-29 07:00:00 8.1 10 Oeste 22 Sudoeste 0 999.2 -0.6 93
2019-01-29 06:00:00 7.8 7 Oeste 19 Oeste 0 999.1 -0.7 93
2019-01-29 05:00:00 8 10 Oeste 19 Oeste 0 999 -0.8 93
2019-01-29 04:00:00 7.6 8 Oeste 19 Oeste 0 999.8 -0.1 93
2019-01-29 03:00:00 8.8 12 Oeste 22 Oeste 0 999.8 -0.4 89
2019-01-29 02:00:00 9.5 10 Oeste 24 Oeste 0 999.8 -0.3 90
2019-01-29 01:00:00 9.2 9 Sudoeste 19 Sudoeste 0 999.9 -0.4 93
2019-01-29 00:00:00 9.6 8 Oeste 17 Oeste 0 1000.2 0.1 91
2019-01-28 23:00:00 9.4 10 Oeste 23 Oeste 0 1000.1 0.1 91
2019-01-28 22:00:00 9.9 14 Oeste 22 Noroeste 0 1000.3 0.1 89
2019-01-28 21:00:00 10.5 9 Oeste 24 Oeste 0 1000.1 -0.1 86
2019-01-28 20:00:00 11.2 16 Oeste 29 Noroeste 0 1000 0 83
2019-01-28 19:00:00 12.3 20 Oeste 38 Noroeste 0 1000.2 0 77
2019-01-28 18:00:00 12.9 24 Noroeste 43 Noroeste 0 1000.2 0.3 75
2019-01-28 17:00:00 13.7 22 Noroeste 46 Noroeste 0 1000 -0.6 69
2019-01-28 16:00:00 14.5 27 Oeste 46 Noroeste 0 1000.2 -1.3 64
2019-01-28 15:00:00 15.8 29 Oeste 46 Noroeste 0 999.9 -2.3 59
2019-01-28 14:00:00 14.6 22 Oeste 40 Oeste 0 1000.6 -1.3 66
2019-01-28 13:00:00 13 24 Oeste 41 Noroeste 0 1001.5 0 70
2019-01-28 12:00:00 11.6 24 Oeste 33 Oeste 0 1002.2 0.5 76
2019-01-28 11:00:00 10.2 17 Oeste 27 Oeste 0 1001.9 0.1 81
2019-01-28 10:00:00 7 9 Oeste 19 Oeste 0 1001.5 0.3 91
2019-01-28 09:00:00 5.3 9 Oeste 14 Oeste 0 1001.7 0.8 91
2019-01-28 08:00:00 5 9 Oeste 18 Oeste 0 1001.8 0.7 87
2019-01-28 07:00:00 5.5 8 Oeste 22 Oeste 0 1001.2 0.2 83
2019-01-28 06:00:00 5.2 11 Oeste 17 Oeste 0 1000.9 -0.1 82
2019-01-28 05:00:00 4.7 9 Oeste 19 Noroeste 0 1001.1 0.2 86
2019-01-28 04:00:00 5.7 11 Oeste 21 Oeste 0 1001 -0.2 84
2019-01-28 03:00:00 5.5 11 Oeste 21 Oeste 0 1001 -0.1 87
2019-01-28 02:00:00 5.8 9 Oeste 17 Oeste 0 1000.9 -0.1 86
2019-01-28 01:00:00 6.3 6 Oeste 17 Oeste 0 1001.2 0.9 84
2019-01-28 00:00:00 6.4 10 Oeste 18 Oeste 0 1001.1 1.2 83
2019-01-27 23:00:00 7.1 13 Oeste 19 Noroeste 0 1001 1.8 78
2019-01-27 22:00:00 8.2 10 Oeste 17 Oeste 0 1000.3 1.7 74
2019-01-27 21:00:00 8.3 13 Oeste 22 Oeste 0 999.9 1.6 71
2019-01-27 20:00:00 9.8 8 Oeste 21 Oeste 0 999.2 0.9 64
2019-01-27 19:00:00 10.8 13 Oeste 19 Oeste 0 998.6 0.3 63
2019-01-27 18:00:00 13.1 15 Noroeste 30 Noroeste 0 998.3 0 52
2019-01-27 17:00:00 14.5 24 Noroeste 36 Noroeste 0 998.3 -0.4 45
2019-01-27 16:00:00 14.8 31 Noroeste 45 Noroeste 0 998.3 -0.7 46
2019-01-27 15:00:00 14.2 31 Noroeste 41 Noroeste 0 998.3 -0.5 50
2019-01-27 14:00:00 13.9 22 Noroeste 35 Noroeste 0 998.7 0.5 55
2019-01-27 13:00:00 13 23 Noroeste 34 Oeste 0 999 0.9 69
2019-01-27 12:00:00 11.8 19 Oeste 31 Oeste 0 998.8 1.6 79
2019-01-27 11:00:00 10.3 12 Oeste 26 Oeste 0 998.2 1.4 86
2019-01-27 10:00:00 7.8 9 Oeste 17 Oeste 0 998.1 1.6 93
2019-01-27 09:00:00 5.8 7 Oeste 17 Oeste 0 997.2 0.6 95
2019-01-27 08:00:00 5.3 4 Oeste 14 Oeste 0 996.8 0.1 95
2019-01-27 07:00:00 5.7 7 Oeste 14 Oeste 0 996.5 -0.1 94
2019-01-27 06:00:00 6.8 9 Oeste 25 Oeste 0 996.6 0.1 92
2019-01-27 05:00:00 7.6 10 Oeste 23 Oeste 0 996.7 0.2 93
2019-01-27 04:00:00 7.3 10 Oeste 28 Oeste 0 996.6 -0.2 94
2019-01-27 03:00:00 7.1 11 Oeste 22 Noroeste 0 996.5 -0.4 92
2019-01-27 02:00:00 7.5 4 Sudoeste 12 Sudoeste 0 996.5 -0.1 89
2019-01-27 01:00:00 8.3 4 Sudoeste 10 Oeste 0 996.8 0.3 87
2019-01-27 00:00:00 7.8 5 Oeste 9 Oeste 0 996.9 -0.2 88
2019-01-26 23:00:00 9.5 5 Oeste 13 Sudoeste 0 996.6 -0.3 82
2019-01-26 22:00:00 11.7 7 Sudoeste 13 Sudoeste 0 996.5 -0.3 74
2019-01-26 21:00:00 11.5 6 Sudoeste 11 Oeste 0 997.1 0.3 76
2019-01-26 20:00:00 12.9 4 Sudoeste 8 Sudoeste 0 996.9 0.1 69
2019-01-26 19:00:00 14.9 3 Sudoeste 7 Noroeste 0 996.8 -0.3 64
2019-01-26 18:00:00 16.6 6 Oeste 12 Noroeste 0 996.8 -1.1 57
2019-01-26 17:00:00 18.6 5 Oeste 8 Oeste 0 996.8 -1.8 46
2019-01-26 16:00:00 19.1 4 Sudeste 6 Sudeste 0 997.1 -2.5 42
2019-01-26 15:00:00 17.6 3 Nordeste 12 Este 0 997.9 -2.4 45
2019-01-26 14:00:00 16.4 9 Este 14 Este 0 998.6 -1.4 54
2019-01-26 13:00:00 13.9 8 Este 13 Este 0 999.6 -0.1 69
2019-01-26 12:00:00 10.5 7 Este 12 Este 0 1000.3 0.9 82
2019-01-26 11:00:00 6.7 3 Nordeste 6 Este 0 1000 1.3 94
2019-01-26 10:00:00 2.8 0 Calma 5 Oeste 0 999.7 1.3 100
2019-01-26 09:00:00 0.9 2 Norte 5 Noroeste 0 999.4 1.1 99
2019-01-26 08:00:00 1.9 3 Sudeste 5 Este 0 998.7 0.3 98
2019-01-26 07:00:00 1.7 0 Calma 2 Nordeste 0 998.4 0 98
2019-01-26 06:00:00 2.4 0 Calma 4 Sur 0 998.3 0.4 97
2019-01-26 05:00:00 2.6 3 Este 6 Este 0 998.4 0.3 97
2019-01-26 04:00:00 3 6 Este 7 Este 0 998.4 0.1 95
2019-01-26 03:00:00 4.5 3 Este 9 Oeste 0 997.9 -0.1 93
2019-01-26 02:00:00 5.7 4 Oeste 6 Oeste 0 998.1 0.1 92
2019-01-26 01:00:00 7.8 5 Oeste 7 Oeste 0 998.3 0.8 88
2019-01-26 00:00:00 7.1 4 Oeste 8 Sudoeste 0 998 0.6 87
2019-01-25 23:00:00 8.4 3 Oeste 6 Oeste 0 998 1 86
2019-01-25 22:00:00 9.1 3 Oeste 5 Sudoeste 0 997.5 0.6 82
2019-01-25 21:00:00 11.3 3 Oeste 4 Oeste 0 997.4 0.8 75
2019-01-25 20:00:00 12.5 0 Calma 4 Sudoeste 0 997 0.3 71
2019-01-25 19:00:00 15.4 0 Calma 6 Norte 0 996.9 -0.1 62
2019-01-25 18:00:00 17.9 5 Norte 9 Nordeste 0 996.6 -0.4 50
2019-01-25 17:00:00 18.9 6 Nordeste 13 Nordeste 0 996.7 -0.7 47
2019-01-25 16:00:00 18.8 5 Este 15 Nordeste 0 997 -0.9 50
2019-01-25 15:00:00 17.7 8 Nordeste 13 Nordeste 0 997 -1.4 55
2019-01-25 14:00:00 16.2 6 Este 11 Este 0 997.4 -0.7 59
2019-01-25 13:00:00 14.6 7 Este 11 Este 0 997.9 0.2 65
2019-01-25 12:00:00 12.4 7 Este 10 Sudeste 0 998.4 1.6 73
2019-01-25 11:00:00 9.2 3 Este 6 Nordeste 0 998.1 2.3 84
2019-01-25 10:00:00 5.2 4 Nordeste 5 Nordeste 0 997.7 2.4 95
2019-01-25 09:00:00 4.9 0 Calma 3 Sudoeste 0 996.8 1.6 91
2019-01-25 08:00:00 6.3 2 Noroeste 9 Oeste 0 995.8 0.8 88
2019-01-25 07:00:00 7.4 8 Oeste 12 Oeste 0 995.3 -0.1 88
2019-01-25 06:00:00 6.8 6 Oeste 10 Oeste 0 995.2 0 90
2019-01-25 05:00:00 7.3 5 Oeste 9 Oeste 0 995 0 87
2019-01-25 04:00:00 7.2 5 Oeste 9 Oeste 0 995.4 0.5 88
2019-01-25 03:00:00 9.7 6 Sudoeste 12 Sudoeste 0 995.2 0.5 80
2019-01-25 02:00:00 10.3 5 Sudoeste 12 Sur 0 995 0.5 77
2019-01-25 01:00:00 10.4 5 Noroeste 12 Noroeste 0 994.9 0.9 77
2019-01-25 00:00:00 11 8 Noroeste 14 Noroeste 0 994.7 1.2 75
2019-01-24 23:00:00 12 5 Oeste 9 Oeste 0 994.5 1.6 75
2019-01-24 22:00:00 12.8 6 Oeste 13 Noroeste 0 994 1.9 74
2019-01-24 21:00:00 13.3 7 Oeste 14 Oeste 0 993.5 2 81
2019-01-24 20:00:00 14.5 12 Oeste 24 Oeste 0 992.9 1.7 77
2019-01-24 19:00:00 16.9 10 Oeste 30 Norte 0 992.1 1 65
2019-01-24 18:00:00 18.7 18 Norte 31 Noroeste 0 991.5 0.2 51
2019-01-24 17:00:00 20 21 Noroeste 39 Noroeste 0 991.2 -0.7 49
2019-01-24 16:00:00 19.7 27 Noroeste 37 Noroeste 0 991.1 -1.3 51
2019-01-24 15:00:00 19.2 28 Noroeste 37 Noroeste 0 991.3 -1.5 53
2019-01-24 14:00:00 18.6 26 Noroeste 38 Noroeste 0 991.9 -0.7 56
2019-01-24 13:00:00 17.6 23 Noroeste 34 Noroeste 0 992.4 -0.2 60
2019-01-24 12:00:00 15.5 26 Noroeste 37 Noroeste 0 992.8 0.4 72
2019-01-24 11:00:00 12.7 22 Oeste 32 Oeste 0 992.6 0.6 86
2019-01-24 10:00:00 10.5 13 Oeste 24 Oeste 0 992.6 0.7 95
2019-01-24 09:00:00 9.6 13 Oeste 23 Oeste 0 992.4 0.5 95
2019-01-24 08:00:00 9.7 18 Oeste 26 Oeste 0 992 -0.3 93
2019-01-24 07:00:00 9.9 15 Oeste 28 Noroeste 0 991.9 -1 92
2019-01-24 06:00:00 10.3 21 Oeste 29 Noroeste 0 991.9 -1.2 91
2019-01-24 05:00:00 10.2 11 Oeste 24 Oeste 0 992.3 -1 91
2019-01-24 04:00:00 10.2 10 Oeste 29 Oeste 0 992.9 -0.5 91
2019-01-24 03:00:00 10.2 9 Oeste 25 Oeste 0 993.1 -0.3 91
2019-01-24 02:00:00 10.7 10 Oeste 25 Oeste 0 993.3 -0.1 90
2019-01-24 01:00:00 10.9 14 Oeste 33 Oeste 0 993.4 -0.2 90
2019-01-24 00:00:00 11.1 16 Oeste 32 Noroeste 0 993.4 -0.1 89
2019-01-23 23:00:00 11.5 13 Oeste 30 Oeste 0 993.4 0 87
2019-01-23 22:00:00 11.5 13 Oeste 27 Oeste 0 993.6 0.3 87
2019-01-23 21:00:00 11.8 15 Oeste 32 Sudoeste 0 993.5 0.4 84
2019-01-23 20:00:00 12.3 14 Oeste 35 Oeste 0 993.4 0.3 81
2019-01-23 19:00:00 12.8 12 Oeste 43 Oeste 0 993.3 0.3 77
2019-01-23 18:00:00 14.2 26 Oeste 42 Noroeste 0 993.1 -0.1 70
2019-01-23 17:00:00 15.5 30 Noroeste 50 Noroeste 0 993.1 -0.9 63
2019-01-23 16:00:00 16 38 Noroeste 55 Noroeste 0 993 -1.4 61
2019-01-23 15:00:00 16 38 Noroeste 53 Noroeste 0 993.2 -1.8 61
2019-01-23 14:00:00 13.9 27 Oeste 45 Oeste 0 994 -1.3 71
2019-01-23 13:00:00 14.3 22 Oeste 42 Oeste 0 994.4 -0.8 70
2019-01-23 12:00:00 13.4 26 Oeste 47 Noroeste 0 995 0 73
2019-01-23 11:00:00 12.1 23 Oeste 39 Oeste 0 995.3 0.3 78
2019-01-23 10:00:00 10 16 Oeste 37 Oeste 0 995.2 0.1 86
2019-01-23 09:00:00 9.4 17 Oeste 32 Sudoeste 0 995 -0.2 88
2019-01-23 08:00:00 9.4 17 Oeste 36 Oeste 0 995 -0.2 90
2019-01-23 07:00:00 9.1 17 Oeste 35 Oeste 0 995.1 -0.7 89
2019-01-23 06:00:00 9.1 12 Oeste 36 Oeste 0 995.2 -0.9 87
2019-01-23 05:00:00 8.9 14 Oeste 30 Sudoeste 0 995.2 -1.2 87
2019-01-23 04:00:00 8.8 15 Oeste 28 Oeste 0 995.8 -1 87
2019-01-23 03:00:00 9 14 Oeste 26 Oeste 0 996.1 -0.2 86
2019-01-23 02:00:00 8.8 12 Oeste 31 Oeste 0 996.4 0.3 86
2019-01-23 01:00:00 8.3 16 Oeste 32 Oeste 0 996.8 0.4 87
2019-01-23 00:00:00 8.7 24 Oeste 36 Oeste 0 996.3 -0.3 84
2019-01-22 23:00:00 8.9 18 Oeste 32 Oeste 0 996.1 -0.6 83
2019-01-22 22:00:00 10.1 12 Oeste 26 Oeste 0 996.4 -0.8 85
2019-01-22 21:00:00 10.5 18 Oeste 31 Oeste 0 996.6 -0.7 88
2019-01-22 20:00:00 11.1 13 Oeste 28 Oeste 0 996.7 -0.7 81
2019-01-22 19:00:00 11.2 12 Oeste 27 Noroeste 0 997.2 -0.6 79
2019-01-22 18:00:00 11.5 12 Oeste 32 Oeste 0 997.3 -1 75
2019-01-22 17:00:00 11.9 17 Oeste 41 Noroeste 0 997.4 -1.5 71
2019-01-22 16:00:00 12.3 25 Oeste 41 Noroeste 0 997.8 -2.4 66
2019-01-22 15:00:00 13 23 Oeste 36 Oeste 0 998.3 -2.1 63
2019-01-22 14:00:00 12.2 21 Oeste 36 Noroeste 0 998.9 -1.6 63
2019-01-22 13:00:00 11.3 22 Noroeste 31 Noroeste 0 1000.2 0.1 71
2019-01-22 12:00:00 9.8 14 Oeste 26 Noroeste 0 1000.4 0.5 80
2019-01-22 11:00:00 7.4 9 Oeste 19 Noroeste 0 1000.5 0.9 86
2019-01-22 10:00:00 5.5 10 Oeste 22 Oeste 0 1000.1 0.6 92
2019-01-22 09:00:00 4.7 9 Oeste 16 Noroeste 0 999.9 0 93
2019-01-22 08:00:00 4 3 Sudoeste 12 Sudoeste 0 999.6 -0.8 95
2019-01-22 07:00:00 3.7 4 Sudoeste 10 Oeste 0 999.5 -1.4 94
2019-01-22 06:00:00 3.3 3 Sudoeste 10 Oeste 0 999.9 -1.1 92
2019-01-22 05:00:00 4.2 6 Oeste 14 Oeste 0 1000.4 -0.8 90
2019-01-22 04:00:00 3.8 5 Oeste 10 Oeste 0 1000.9 -0.4 91
2019-01-22 03:00:00 4.3 2 Sudoeste 11 Oeste 0 1001 -0.4 88
2019-01-22 02:00:00 4.7 6 Oeste 10 Oeste 0 1001.2 -0.5 85
2019-01-22 01:00:00 5.3 3 Sudoeste 9 Oeste 0 1001.3 0.3 83
2019-01-22 00:00:00 5.9 4 Sudoeste 10 Oeste 0 1001.4 0.8 78
2019-01-21 23:00:00 6.7 6 Oeste 13 Oeste 0 1001.7 1.4 76
2019-01-21 22:00:00 6.7 5 Oeste 11 Nordeste 0 1001 0.9 77
2019-01-21 21:00:00 8.7 7 Oeste 11 Oeste 0 1000.6 0.6 68
2019-01-21 20:00:00 9.2 5 Oeste 11 Noroeste 0 1000.3 0.5 69
2019-01-21 19:00:00 10.8 7 Noroeste 9 Noroeste 0 1000.1 0.3 62
2019-01-21 18:00:00 12.6 2 Oeste 9 Este 0 1000 -0.1 55
2019-01-21 17:00:00 14.6 5 Sudeste 13 Este 0 999.8 -0.8 49
2019-01-21 16:00:00 14.1 6 Este 15 Norte 0 999.8 -1.1 48
2019-01-21 15:00:00 13.4 9 Norte 19 Nordeste 0 1000.1 -1.6 53
2019-01-21 14:00:00 13 9 Nordeste 17 Noroeste 0 1000.6 -0.6 54
2019-01-21 13:00:00 11.7 5 Norte 15 Norte 0 1000.9 0.2 59
2019-01-21 12:00:00 9.8 6 Noroeste 18 Noroeste 0 1001.7 1.5 70
2019-01-21 11:00:00 7.7 8 Oeste 12 Oeste 0 1001.2 1.4 81
2019-01-21 10:00:00 5.3 4 Oeste 8 Oeste 0 1000.7 1.3 84
2019-01-21 09:00:00 4.3 7 Oeste 14 Oeste 0 1000.2 1.2 85
2019-01-21 08:00:00 4.5 7 Oeste 10 Oeste 0 999.8 0.4 87
2019-01-21 07:00:00 4.3 4 Sudoeste 10 Oeste 0 999.4 0.2 90
2019-01-21 06:00:00 4.6 6 Sudoeste 10 Sudoeste 0 999 -0.1 89
2019-01-21 05:00:00 5.2 5 Sudoeste 9 Oeste 0 999.4 0.1 87
2019-01-21 04:00:00 5.5 5 Sudoeste 9 Sudoeste 0 999.2 -0.1 87
2019-01-21 03:00:00 5.9 4 Sudoeste 12 Sudoeste 0 999.1 0.3 87
2019-01-21 02:00:00 6.5 6 Sudoeste 12 Oeste 0 999.3 0.9 85
2019-01-21 01:00:00 6.7 7 Oeste 14 Oeste 0 999.3 1.4 84
2019-01-21 00:00:00 6.5 4 Sudoeste 16 Oeste 0 998.8 1.4 85
2019-01-20 23:00:00 7.1 8 Oeste 16 Oeste 0 998.4 1.5 81
2019-01-20 22:00:00 7.6 10 Oeste 14 Noroeste 0 997.9 1.6 75
2019-01-20 21:00:00 8.8 13 Noroeste 17 Noroeste 0 997.4 1.5 71
2019-01-20 20:00:00 10 11 Oeste 15 Oeste 0 996.9 1.6 67
2019-01-20 19:00:00 11.3 5 Oeste 27 Norte 0 996.3 1.3 62
2019-01-20 18:00:00 13.3 19 Noroeste 36 Noroeste 0 995.9 1 53
2019-01-20 17:00:00 14.5 21 Norte 36 Noroeste 0 995.3 0 50
2019-01-20 16:00:00 14.6 24 Noroeste 36 Noroeste 0 995 -0.4 49
2019-01-20 15:00:00 14.4 23 Noroeste 32 Norte 0 994.9 -0.4 51
2019-01-20 14:00:00 14.1 21 Norte 38 Noroeste 0 995.3 0.9 53
2019-01-20 13:00:00 13.1 28 Noroeste 40 Norte 0 995.4 1.9 59
2019-01-20 12:00:00 12.4 23 Norte 45 Norte 0 995.3 2.7 61
2019-01-20 11:00:00 11.2 27 Noroeste 38 Noroeste 0 994.4 2.9 69
2019-01-20 10:00:00 9.6 17 Noroeste 32 Noroeste 0 993.5 3 80
2019-01-20 09:00:00 9.1 26 Noroeste 41 Noroeste 0 992.6 2.8 83
2019-01-20 08:00:00 9.6 19 Oeste 30 Noroeste 0 991.5 2.3 90
2019-01-20 07:00:00 9.7 22 Oeste 37 Noroeste 0 990.5 1.5 90
2019-01-20 06:00:00 10.5 22 Oeste 35 Oeste 0 989.8 0.7 90
2019-01-20 05:00:00 11.2 17 Oeste 30 Oeste 0 989.2 0 91
2019-01-20 04:00:00 11.5 13 Oeste 27 Oeste 0 989 -0.7 96
2019-01-20 03:00:00 11.4 8 Sudoeste 21 Sudoeste 0.2 989.1 -0.8 97
2019-01-20 02:00:00 11.4 8 Sudoeste 18 Oeste 0 989.2 -0.5 96
2019-01-20 01:00:00 11.6 8 Sudoeste 20 Oeste 0 989.7 -0.2 94
2019-01-20 00:00:00 11.8 11 Sudoeste 21 Sudoeste 0 989.9 0 96
2019-01-19 23:00:00 11.8 6 Sudoeste 17 Sudoeste 0 989.7 -0.1 96
2019-01-19 22:00:00 12 6 Sudoeste 19 Oeste 0 989.9 0 97
2019-01-19 21:00:00 12.4 8 Sudoeste 21 Sur -- 989.9 -0.6 97
2019-01-19 20:00:00 11.8 8 Sur 24 Sur 10.6 989.8 -1.8 97
2019-01-19 19:00:00 12.1 13 Sur 25 Sur 2.8 989.9 -2.7 95
2019-01-19 18:00:00 12 14 Sur 26 Sudoeste 0.4 990.5 -3.1 94
2019-01-19 17:00:00 11.8 13 Sudoeste 26 Sudoeste 0 991.6 -3.4 92
2019-01-19 16:00:00 10.9 9 Sudoeste 23 Sur 0 992.6 -3.7 93
2019-01-19 15:00:00 10.2 6 Sudoeste 13 Sudoeste 0.2 993.6 -3.6 94
2019-01-19 14:00:00 9.8 8 Sur 15 Sur 0 995 -2.2 93
2019-01-19 13:00:00 9.1 9 Sur 15 Sudoeste 0.2 996.3 -0.7 93
2019-01-19 12:00:00 8.7 4 Sur 10 Sur 0 997.2 0.6 94
2019-01-19 11:00:00 7.9 3 Este 8 Este 0 997.2 0.9 95
2019-01-19 10:00:00 7.3 3 Noroeste 4 Noroeste 0.2 997 0.4 96
2019-01-19 09:00:00 6.9 2 Norte 4 Este 0 996.6 0.1 94
2019-01-19 08:00:00 7 3 Sur 7 Sudeste 0 996.3 -0.5 95
2019-01-19 07:00:00 6.7 0 Calma 8 Este 0 996.6 -0.5 93
2019-01-19 06:00:00 6.6 6 Este 8 Este 0 996.5 -0.4 94
2019-01-19 05:00:00 6.7 5 Este 7 Este 0 996.8 -0.5 95
2019-01-19 04:00:00 6.8 2 Norte 4 Este 0 997.1 -0.1 95
2019-01-19 03:00:00 6.9 4 Este 6 Este 0 996.9 -0.5 94
2019-01-19 02:00:00 7 3 Nordeste 5 Sudoeste 0 997.3 -0.2 93
2019-01-19 01:00:00 7.4 3 Sudoeste 8 Sudoeste 0 997.2 -0.5 92
2019-01-19 00:00:00 7.7 4 Sudoeste 8 Sudoeste 0 997.4 -0.3 88